createdAt,value
2023-01-29T00:00:41.233Z,100828.32
2023-01-29T00:01:43.196Z,100816.37
2023-01-29T00:02:45.172Z,100814.73
2023-01-29T00:03:47.028Z,100818.24
2023-01-29T00:04:48.816Z,100820.02
2023-01-29T00:05:50.658Z,100816.64
2023-01-29T00:06:52.771Z,100809.80
2023-01-29T00:07:54.582Z,100816.70
2023-01-29T00:08:56.368Z,100813.30
2023-01-29T00:09:58.181Z,100814.20
2023-01-29T00:11:00.040Z,100813.36
2023-01-29T00:12:01.834Z,100816.03
2023-01-29T00:13:03.643Z,100815.13
2023-01-29T00:14:05.447Z,100811.69
2023-01-29T00:15:07.265Z,100815.06
2023-01-29T00:16:09.806Z,100818.44
2023-01-29T00:17:11.697Z,100816.03
2023-01-29T00:18:13.475Z,100818.60
2023-01-29T00:19:15.270Z,100816.13
2023-01-29T00:20:17.475Z,100813.63
2023-01-29T00:21:22.572Z,100817.00
2023-01-29T00:22:24.430Z,100818.77
2023-01-29T00:23:26.228Z,100811.98
2023-01-29T00:24:28.110Z,100808.55
2023-01-29T00:25:29.939Z,100818.60
2023-01-29T00:26:31.790Z,100816.70
2023-01-29T00:27:33.604Z,100813.94
2023-01-29T00:28:35.405Z,100820.81
2023-01-29T00:29:37.220Z,100819.81
2023-01-29T00:30:39.025Z,100816.24
2023-01-29T00:31:40.979Z,100817.11
2023-01-29T00:32:42.886Z,100817.24
2023-01-29T00:33:44.673Z,100818.11
2023-01-29T00:34:46.520Z,100821.78
2023-01-29T00:35:48.343Z,100815.80
2023-01-29T00:36:50.167Z,100822.71
2023-01-29T00:37:51.970Z,100820.08
2023-01-29T00:38:53.779Z,100828.72
2023-01-29T00:39:55.576Z,100821.84
2023-01-29T00:40:57.383Z,100826.02
2023-01-29T00:41:59.231Z,100813.10
2023-01-29T00:43:01.027Z,100824.08
2023-01-29T00:44:02.845Z,100824.08
2023-01-29T00:45:04.640Z,100823.18
2023-01-29T00:46:06.855Z,100827.32
2023-01-29T00:47:08.721Z,100822.05
2023-01-29T00:48:10.608Z,100823.75
2023-01-29T00:49:12.407Z,100824.61
2023-01-29T00:50:14.556Z,100827.12
2023-01-29T00:51:16.387Z,100821.91
2023-01-29T00:52:18.265Z,100823.75
2023-01-29T00:53:20.059Z,100826.45
2023-01-29T00:54:21.879Z,100825.62
2023-01-29T00:55:23.675Z,100820.48
2023-01-29T00:56:25.612Z,100825.69
2023-01-29T00:57:27.462Z,100825.69
2023-01-29T00:58:29.287Z,100823.18
2023-01-29T00:59:31.078Z,100824.95
2023-01-29T01:00:32.897Z,100818.17
2023-01-29T01:01:34.672Z,100823.45
2023-01-29T01:02:36.534Z,100820.20
2023-01-29T01:03:38.610Z,100819.41
2023-01-29T01:04:40.487Z,100819.41
2023-01-29T01:05:42.276Z,100813.30
2023-01-29T01:06:44.072Z,100818.44
2023-01-29T01:07:45.932Z,100819.41
2023-01-29T01:08:47.719Z,100810.80
2023-01-29T01:09:49.616Z,100814.20
2023-01-29T01:10:51.383Z,100815.87
2023-01-29T01:11:53.188Z,100814.06
2023-01-29T01:12:55.064Z,100806.42
2023-01-29T01:13:56.885Z,100812.50
2023-01-29T01:14:58.684Z,100809.06
2023-01-29T01:16:00.526Z,100811.56
2023-01-29T01:17:02.391Z,100806.36
2023-01-29T01:18:04.231Z,100797.75
2023-01-29T01:19:06.076Z,100814.13
2023-01-29T01:20:07.953Z,100804.59
2023-01-29T01:21:09.760Z,100801.22
2023-01-29T01:22:11.560Z,100808.86
2023-01-29T01:23:13.403Z,100807.02
2023-01-29T01:24:15.255Z,100806.16
2023-01-29T01:25:17.106Z,100806.09
2023-01-29T01:26:19.004Z,100806.16
2023-01-29T01:27:20.812Z,100807.09
2023-01-29T01:28:22.632Z,100811.43
2023-01-29T01:29:24.444Z,100811.43
2023-01-29T01:30:26.368Z,100806.16
2023-01-29T01:31:28.255Z,100814.73
2023-01-29T01:32:30.075Z,100807.83
2023-01-29T01:33:33.655Z,100811.23
2023-01-29T01:34:35.660Z,100815.34
2023-01-29T01:35:37.431Z,100812.77
2023-01-29T01:36:39.637Z,100811.97
2023-01-29T01:37:41.450Z,100810.40
2023-01-29T01:38:43.291Z,100805.33
2023-01-29T01:39:45.079Z,100802.82
2023-01-29T01:40:47.111Z,100804.72
2023-01-29T01:41:48.982Z,100809.22
2023-01-29T01:42:50.772Z,100809.28
2023-01-29T01:43:52.625Z,100809.35
2023-01-29T01:44:54.489Z,100803.41
2023-01-29T01:45:56.393Z,100812.05
2023-01-29T01:46:58.709Z,100800.84
2023-01-29T01:48:00.498Z,100811.92
2023-01-29T01:49:02.344Z,100805.92
2023-01-29T01:50:04.304Z,100805.92
2023-01-29T01:51:06.145Z,100805.98
2023-01-29T01:52:07.930Z,100810.28
2023-01-29T01:53:09.733Z,100814.62
2023-01-29T01:54:11.582Z,100808.69
2023-01-29T01:55:13.427Z,100811.25
2023-01-29T01:56:15.243Z,100812.92
2023-01-29T01:57:17.060Z,100805.21
2023-01-29T01:58:18.843Z,100800.06
2023-01-29T01:59:20.688Z,100806.05
2023-01-29T02:00:22.486Z,100800.70
2023-01-29T02:01:25.806Z,100799.01
2023-01-29T02:02:27.756Z,100798.20
2023-01-29T02:03:29.560Z,100801.64
2023-01-29T02:04:31.392Z,100795.70
2023-01-29T02:05:33.525Z,100796.44
2023-01-29T02:06:35.840Z,100800.77
2023-01-29T02:07:37.649Z,100799.70
2023-01-29T02:08:39.462Z,100798.78
2023-01-29T02:09:41.303Z,100800.38
2023-01-29T02:10:43.192Z,100809.80
2023-01-29T02:11:44.995Z,100803.85
2023-01-29T02:12:46.793Z,100809.86
2023-01-29T02:13:48.595Z,100808.99
2023-01-29T02:14:50.433Z,100806.42
2023-01-29T02:15:52.228Z,100809.80
2023-01-29T02:16:54.344Z,100812.30
2023-01-29T02:17:56.134Z,100802.82
2023-01-29T02:18:57.939Z,100804.52
2023-01-29T02:19:59.787Z,100808.73
2023-01-29T02:21:01.627Z,100807.83
2023-01-29T02:22:03.434Z,100807.02
2023-01-29T02:23:05.230Z,100803.66
2023-01-29T02:24:07.146Z,100806.29
2023-01-29T02:25:08.999Z,100808.92
2023-01-29T02:26:11.209Z,100809.06
2023-01-29T02:27:13.019Z,100806.42
2023-01-29T02:28:15.402Z,100804.59
2023-01-29T02:29:17.256Z,100805.39
2023-01-29T02:30:21.625Z,100812.23
2023-01-29T02:31:23.555Z,100808.66
2023-01-29T02:32:25.368Z,100811.16
2023-01-29T02:33:27.479Z,100807.77
2023-01-29T02:34:29.276Z,100812.97
2023-01-29T02:35:31.128Z,100818.17
2023-01-29T02:36:33.080Z,100808.73
2023-01-29T02:37:34.881Z,100807.16
2023-01-29T02:38:36.671Z,100814.06
2023-01-29T02:39:38.494Z,100816.64
2023-01-29T02:40:40.359Z,100819.20
2023-01-29T02:41:42.934Z,100816.50
2023-01-29T02:42:44.771Z,100819.08
2023-01-29T02:43:46.558Z,100808.73
2023-01-29T02:44:48.365Z,100815.54
2023-01-29T02:45:50.268Z,100815.61
2023-01-29T02:46:52.116Z,100810.47
2023-01-29T02:47:53.913Z,100801.02
2023-01-29T02:48:55.734Z,100800.12
2023-01-29T02:49:57.512Z,100806.09
2023-01-29T02:50:59.601Z,100797.48
2023-01-29T02:52:01.436Z,100794.84
2023-01-29T02:53:03.278Z,100794.84
2023-01-29T02:54:05.690Z,100796.34
2023-01-29T02:55:07.480Z,100791.81
2023-01-29T02:56:10.169Z,100790.88
2023-01-29T02:57:11.978Z,100801.95
2023-01-29T02:58:13.767Z,100789.98
2023-01-29T02:59:15.574Z,100793.45
2023-01-29T03:00:17.698Z,100789.11
2023-01-29T03:01:19.925Z,100785.74
2023-01-29T03:02:21.763Z,100790.05
2023-01-29T03:03:23.528Z,100795.05
2023-01-29T03:04:25.345Z,100783.91
2023-01-29T03:05:27.135Z,100793.18
2023-01-29T03:06:28.988Z,100798.25
2023-01-29T03:07:31.006Z,100796.63
2023-01-29T03:08:32.806Z,100794.12
2023-01-29T03:09:34.607Z,100803.73
2023-01-29T03:10:36.524Z,100791.88
2023-01-29T03:11:38.351Z,100797.16
2023-01-29T03:12:40.161Z,100791.21
2023-01-29T03:13:41.970Z,100796.48
2023-01-29T03:14:43.781Z,100807.63
2023-01-29T03:15:45.608Z,100802.36
2023-01-29T03:16:47.494Z,100806.50
2023-01-29T03:17:49.356Z,100805.39
2023-01-29T03:18:51.146Z,100802.63
2023-01-29T03:19:52.942Z,100797.42
2023-01-29T03:20:54.851Z,100801.62
2023-01-29T03:21:56.692Z,100800.69
2023-01-29T03:22:58.574Z,100800.62
2023-01-29T03:24:00.402Z,100800.69
2023-01-29T03:25:02.199Z,100807.56
2023-01-29T03:26:03.967Z,100804.98
2023-01-29T03:27:05.801Z,100796.34
2023-01-29T03:28:07.607Z,100795.55
2023-01-29T03:29:09.415Z,100789.37
2023-01-29T03:30:11.527Z,100791.67
2023-01-29T03:31:13.440Z,100783.10
2023-01-29T03:32:15.879Z,100790.88
2023-01-29T03:33:17.690Z,100783.97
2023-01-29T03:34:20.082Z,100782.13
2023-01-29T03:35:21.903Z,100788.10
2023-01-29T03:36:23.720Z,100787.34
2023-01-29T03:37:25.587Z,100790.07
2023-01-29T03:38:27.422Z,100790.94
2023-01-29T03:39:29.241Z,100788.38
2023-01-29T03:40:31.139Z,100790.28
2023-01-29T03:41:32.956Z,100789.58
2023-01-29T03:42:34.796Z,100806.63
2023-01-29T03:43:36.595Z,100800.48
2023-01-29T03:44:38.500Z,100798.65
2023-01-29T03:45:40.359Z,100803.85
2023-01-29T03:46:42.210Z,100797.84
2023-01-29T03:47:44.051Z,100793.44
2023-01-29T03:48:45.853Z,100800.18
2023-01-29T03:49:47.652Z,100803.37
2023-01-29T03:50:50.683Z,100804.11
2023-01-29T03:51:52.494Z,100801.54
2023-01-29T03:52:54.333Z,100804.17
2023-01-29T03:53:56.206Z,100809.38
2023-01-29T03:54:57.992Z,100800.80
2023-01-29T03:55:59.796Z,100808.52
2023-01-29T03:57:01.594Z,100800.88
2023-01-29T03:58:03.442Z,100809.59
2023-01-29T03:59:05.262Z,100804.58
2023-01-29T04:00:07.671Z,100806.35
2023-01-29T04:01:09.499Z,100797.91
2023-01-29T04:02:11.281Z,100809.13
2023-01-29T04:03:13.164Z,100802.29
2023-01-29T04:04:15.547Z,100804.72
2023-01-29T04:05:17.458Z,100798.58
2023-01-29T04:06:19.332Z,100795.21
2023-01-29T04:07:21.134Z,100801.22
2023-01-29T04:08:22.990Z,100798.58
2023-01-29T04:09:24.796Z,100795.88
2023-01-29T04:10:26.801Z,100799.24
2023-01-29T04:11:28.679Z,100801.81
2023-01-29T04:12:30.464Z,100800.73
2023-01-29T04:13:32.309Z,100801.54
2023-01-29T04:14:34.132Z,100800.73
2023-01-29T04:15:35.944Z,100793.10
2023-01-29T04:16:37.811Z,100796.61
2023-01-29T04:17:39.682Z,100807.88
2023-01-29T04:18:41.527Z,100798.58
2023-01-29T04:19:43.325Z,100807.16
2023-01-29T04:20:45.224Z,100806.28
2023-01-29T04:21:47.018Z,100807.95
2023-01-29T04:22:48.823Z,100811.42
2023-01-29T04:23:50.667Z,100813.99
2023-01-29T04:24:52.492Z,100812.29
2023-01-29T04:25:54.296Z,100811.42
2023-01-29T04:26:56.096Z,100813.72
2023-01-29T04:27:57.913Z,100808.38
2023-01-29T04:28:59.783Z,100815.17
2023-01-29T04:30:01.624Z,100814.23
2023-01-29T04:31:03.479Z,100809.17
2023-01-29T04:32:05.297Z,100806.61
2023-01-29T04:33:07.108Z,100803.83
2023-01-29T04:34:08.952Z,100802.89
2023-01-29T04:35:10.738Z,100805.46
2023-01-29T04:36:12.737Z,100812.27
2023-01-29T04:37:14.540Z,100813.96
2023-01-29T04:38:16.343Z,100802.83
2023-01-29T04:39:18.188Z,100799.42
2023-01-29T04:40:20.032Z,100801.98
2023-01-29T04:41:21.834Z,100805.67
2023-01-29T04:42:23.638Z,100804.17
2023-01-29T04:43:25.434Z,100808.44
2023-01-29T04:44:27.263Z,100807.41
2023-01-29T04:45:29.057Z,100810.88
2023-01-29T04:46:30.863Z,100812.67
2023-01-29T04:47:32.746Z,100806.02
2023-01-29T04:48:34.567Z,100808.85
2023-01-29T04:49:36.393Z,100809.13
2023-01-29T04:50:38.314Z,100809.20
2023-01-29T04:51:40.108Z,100806.69
2023-01-29T04:52:41.899Z,100809.33
2023-01-29T04:53:43.716Z,100809.39
2023-01-29T04:54:45.547Z,100808.53
2023-01-29T04:55:47.388Z,100812.77
2023-01-29T04:56:49.173Z,100812.70
2023-01-29T04:57:50.970Z,100806.48
2023-01-29T04:58:52.793Z,100809.06
2023-01-29T04:59:54.651Z,100806.42
2023-01-29T05:00:56.482Z,100814.27
2023-01-29T05:01:58.358Z,100812.70
2023-01-29T05:03:00.185Z,100817.17
2023-01-29T05:04:01.985Z,100814.73
2023-01-29T05:05:03.824Z,100808.86
2023-01-29T05:06:05.920Z,100816.70
2023-01-29T05:07:07.719Z,100817.64
2023-01-29T05:08:09.520Z,100825.42
2023-01-29T05:09:11.322Z,100823.61
2023-01-29T05:10:14.185Z,100828.82
2023-01-29T05:11:16.367Z,100830.48
2023-01-29T05:12:18.171Z,100830.22
2023-01-29T05:13:19.948Z,100831.78
2023-01-29T05:14:21.752Z,100834.08
2023-01-29T05:15:23.600Z,100835.81
2023-01-29T05:16:25.750Z,100833.18
2023-01-29T05:17:27.501Z,100834.95
2023-01-29T05:18:29.335Z,100836.65
2023-01-29T05:19:31.145Z,100843.52
2023-01-29T05:20:33.115Z,100843.66
2023-01-29T05:21:34.894Z,100848.06
2023-01-29T05:22:36.692Z,100848.13
2023-01-29T05:23:38.502Z,100852.41
2023-01-29T05:24:40.345Z,100840.30
2023-01-29T05:25:42.148Z,100847.06
2023-01-29T05:26:44.306Z,100843.52
2023-01-29T05:27:46.110Z,100843.59
2023-01-29T05:28:47.905Z,100845.36
2023-01-29T05:29:49.733Z,100841.02
2023-01-29T05:30:51.633Z,100847.93
2023-01-29T05:31:53.398Z,100842.86
2023-01-29T05:32:55.177Z,100837.66
2023-01-29T05:33:56.972Z,100848.73
2023-01-29T05:34:58.770Z,100841.02
2023-01-29T05:36:00.637Z,100843.73
2023-01-29T05:37:02.447Z,100845.50
2023-01-29T05:38:04.242Z,100838.59
2023-01-29T05:39:06.049Z,100847.93
2023-01-29T05:40:08.154Z,100840.81
2023-01-29T05:41:10.003Z,100845.02
2023-01-29T05:42:11.851Z,100849.29
2023-01-29T05:43:13.649Z,100849.15
2023-01-29T05:44:15.459Z,100847.24
2023-01-29T05:45:17.252Z,100849.67
2023-01-29T05:46:19.154Z,100852.10
2023-01-29T05:47:20.972Z,100848.56
2023-01-29T05:48:22.779Z,100846.83
2023-01-29T05:49:24.877Z,100853.70
2023-01-29T05:50:26.681Z,100854.80
2023-01-29T05:51:28.515Z,100845.55
2023-01-29T05:52:30.320Z,100839.81
2023-01-29T05:53:32.149Z,100850.02
2023-01-29T05:54:33.916Z,100840.55
2023-01-29T05:55:35.737Z,100842.17
2023-01-29T05:56:37.773Z,100843.77
2023-01-29T05:57:39.802Z,100835.86
2023-01-29T05:58:41.596Z,100833.16
2023-01-29T05:59:43.399Z,100837.42
2023-01-29T06:00:45.308Z,100833.84
2023-01-29T06:01:47.175Z,100836.41
2023-01-29T06:02:48.990Z,100838.15
2023-01-29T06:03:50.752Z,100836.77
2023-01-29T06:04:52.567Z,100838.70
2023-01-29T06:05:54.363Z,100840.68
2023-01-29T06:06:56.215Z,100837.38
2023-01-29T06:07:58.014Z,100840.89
2023-01-29T06:08:59.809Z,100845.95
2023-01-29T06:10:01.637Z,100841.72
2023-01-29T06:11:03.530Z,100843.45
2023-01-29T06:12:05.387Z,100846.16
2023-01-29T06:13:07.308Z,100841.09
2023-01-29T06:14:09.095Z,100841.02
2023-01-29T06:15:10.888Z,100846.03
2023-01-29T06:16:13.079Z,100839.16
2023-01-29T06:17:16.481Z,100841.72
2023-01-29T06:18:18.296Z,100841.72
2023-01-29T06:19:20.102Z,100844.36
2023-01-29T06:20:21.890Z,100851.30
2023-01-29T06:21:23.690Z,100845.43
2023-01-29T06:22:25.537Z,100854.14
2023-01-29T06:23:27.342Z,100856.84
2023-01-29T06:24:29.211Z,100861.98
2023-01-29T06:25:31.033Z,100859.48
2023-01-29T06:26:33.147Z,100867.13
2023-01-29T06:27:35.006Z,100870.39
2023-01-29T06:28:37.157Z,100866.71
2023-01-29T06:29:38.964Z,100867.34
2023-01-29T06:30:40.804Z,100863.87
2023-01-29T06:31:42.641Z,100870.84
2023-01-29T06:32:44.525Z,100869.22
2023-01-29T06:33:46.336Z,100862.62
2023-01-29T06:34:49.734Z,100861.92
2023-01-29T06:35:51.657Z,100864.42
2023-01-29T06:36:53.547Z,100853.80
2023-01-29T06:37:55.398Z,100858.00
2023-01-29T06:38:57.206Z,100852.06
2023-01-29T06:39:59.010Z,100849.49
2023-01-29T06:41:00.904Z,100852.80
2023-01-29T06:42:02.808Z,100849.29
2023-01-29T06:43:04.668Z,100855.30
2023-01-29T06:44:06.508Z,100852.66
2023-01-29T06:45:08.928Z,100859.56
2023-01-29T06:46:11.127Z,100849.22
2023-01-29T06:47:12.929Z,100857.86
2023-01-29T06:48:14.793Z,100851.86
2023-01-29T06:49:16.613Z,100847.52
2023-01-29T06:50:18.816Z,100852.73
2023-01-29T06:51:20.711Z,100851.16
2023-01-29T06:52:22.504Z,100853.94
2023-01-29T06:53:24.356Z,100849.63
2023-01-29T06:54:26.142Z,100842.52
2023-01-29T06:55:27.954Z,100840.61
2023-01-29T06:56:29.764Z,100845.61
2023-01-29T06:57:32.600Z,100855.02
2023-01-29T06:58:34.483Z,100844.88
2023-01-29T06:59:36.320Z,100851.09
2023-01-29T07:00:38.164Z,100852.06
2023-01-29T07:01:39.976Z,100858.14
2023-01-29T07:02:41.740Z,100856.58
2023-01-29T07:03:43.607Z,100859.28
2023-01-29T07:04:45.406Z,100861.98
2023-01-29T07:05:47.217Z,100865.39
2023-01-29T07:06:49.124Z,100860.78
2023-01-29T07:07:50.930Z,100853.59
2023-01-29T07:08:52.778Z,100856.55
2023-01-29T07:09:54.588Z,100858.69
2023-01-29T07:10:56.392Z,100856.74
2023-01-29T07:11:58.197Z,100859.97
2023-01-29T07:13:00.124Z,100850.28
2023-01-29T07:14:02.048Z,100858.64
2023-01-29T07:15:03.862Z,100851.70
2023-01-29T07:16:06.163Z,100850.14
2023-01-29T07:17:07.976Z,100850.21
2023-01-29T07:18:09.787Z,100845.80
2023-01-29T07:19:11.629Z,100838.10
2023-01-29T07:20:13.857Z,100841.71
2023-01-29T07:21:15.715Z,100842.58
2023-01-29T07:22:17.529Z,100841.02
2023-01-29T07:23:19.310Z,100837.66
2023-01-29T07:24:21.188Z,100838.62
2023-01-29T07:25:22.994Z,100840.44
2023-01-29T07:26:24.792Z,100843.97
2023-01-29T07:27:26.618Z,100843.97
2023-01-29T07:28:28.457Z,100848.97
2023-01-29T07:29:30.295Z,100853.34
2023-01-29T07:30:32.214Z,100843.84
2023-01-29T07:31:34.186Z,100836.93
2023-01-29T07:32:36.128Z,100839.28
2023-01-29T07:33:37.915Z,100831.52
2023-01-29T07:34:39.813Z,100836.58
2023-01-29T07:35:42.096Z,100837.52
2023-01-29T07:36:44.230Z,100839.50
2023-01-29T07:37:46.573Z,100838.70
2023-01-29T07:38:48.401Z,100851.98
2023-01-29T07:39:50.261Z,100851.98
2023-01-29T07:40:52.056Z,100841.64
2023-01-29T07:41:53.851Z,100848.58
2023-01-29T07:42:55.656Z,100849.70
2023-01-29T07:43:57.486Z,100845.29
2023-01-29T07:44:59.363Z,100842.58
2023-01-29T07:46:01.401Z,100849.27
2023-01-29T07:47:03.171Z,100841.50
2023-01-29T07:48:05.013Z,100841.57
2023-01-29T07:49:06.768Z,100850.28
2023-01-29T07:50:09.407Z,100846.84
2023-01-29T07:51:11.254Z,100841.85
2023-01-29T07:52:13.036Z,100843.84
2023-01-29T07:53:14.896Z,100845.71
2023-01-29T07:54:16.725Z,100837.42
2023-01-29T07:55:18.606Z,100843.56
2023-01-29T07:56:20.414Z,100845.47
2023-01-29T07:57:22.212Z,100840.34
2023-01-29T07:58:24.018Z,100848.11
2023-01-29T07:59:25.813Z,100841.90
2023-01-29T08:00:27.668Z,100852.23
2023-01-29T08:01:30.093Z,100846.34
2023-01-29T08:02:32.038Z,100849.05
2023-01-29T08:03:33.855Z,100849.22
2023-01-29T08:04:35.673Z,100855.23
2023-01-29T08:05:37.518Z,100849.15
2023-01-29T08:06:39.312Z,100856.02
2023-01-29T08:07:41.111Z,100853.52
2023-01-29T08:08:42.908Z,100854.56
2023-01-29T08:09:44.730Z,100854.70
2023-01-29T08:10:46.693Z,100857.86
2023-01-29T08:11:49.064Z,100857.80
2023-01-29T08:12:50.905Z,100851.86
2023-01-29T08:13:52.717Z,100852.00
2023-01-29T08:16:32.863Z,100855.50
2023-01-29T08:17:34.654Z,100857.00
2023-01-29T08:18:36.451Z,100865.56
2023-01-29T08:19:38.257Z,100864.63
2023-01-29T08:20:40.045Z,100857.52
2023-01-29T08:21:41.872Z,100861.68
2023-01-29T08:22:43.661Z,100858.25
2023-01-29T08:23:45.472Z,100855.61
2023-01-29T08:24:54.134Z,100854.95
2023-01-29T08:25:50.988Z,100862.66
2023-01-29T08:26:52.839Z,100853.03
2023-01-29T08:27:54.654Z,100860.53
2023-01-29T08:28:56.693Z,100866.61
2023-01-29T08:29:58.860Z,100864.87
2023-01-29T08:31:00.784Z,100859.59
2023-01-29T08:32:02.626Z,100860.25
2023-01-29T08:33:04.523Z,100854.11
2023-01-29T08:34:06.301Z,100855.62
2023-01-29T08:35:08.081Z,100854.62
2023-01-29T08:36:11.427Z,100858.78
2023-01-29T08:37:13.278Z,100857.84
2023-01-29T08:38:15.121Z,100854.19
2023-01-29T08:39:16.993Z,100860.84
2023-01-29T08:40:19.006Z,100851.41
2023-01-29T08:41:21.123Z,100854.77
2023-01-29T08:42:22.934Z,100850.44
2023-01-29T08:43:24.816Z,100857.19
2023-01-29T08:44:26.590Z,100855.35
2023-01-29T08:45:28.407Z,100853.36
2023-01-29T08:46:30.266Z,100848.09
2023-01-29T08:47:32.067Z,100863.34
2023-01-29T08:48:33.854Z,100849.48
2023-01-29T08:49:35.634Z,100851.19
2023-01-29T08:50:37.509Z,100857.11
2023-01-29T08:51:39.274Z,100850.36
2023-01-29T08:52:41.247Z,100852.92
2023-01-29T08:53:43.025Z,100864.23
2023-01-29T08:54:44.919Z,100854.05
2023-01-29T08:55:46.678Z,100846.42
2023-01-29T08:56:48.603Z,100844.72
2023-01-29T08:57:50.457Z,100851.70
2023-01-29T08:58:52.321Z,100849.78
2023-01-29T08:59:54.179Z,100840.09
2023-01-29T09:00:56.101Z,100845.30
2023-01-29T09:01:57.983Z,100851.34
2023-01-29T09:02:59.920Z,100849.48
2023-01-29T09:04:01.802Z,100843.34
2023-01-29T09:05:03.639Z,100852.70
2023-01-29T09:06:05.537Z,100845.66
2023-01-29T09:07:07.330Z,100847.35
2023-01-29T09:08:09.178Z,100838.03
2023-01-29T09:09:11.042Z,100837.95
2023-01-29T09:10:12.847Z,100832.83
2023-01-29T09:11:14.671Z,100843.99
2023-01-29T09:12:16.445Z,100833.80
2023-01-29T09:13:18.366Z,100841.00
2023-01-29T09:14:20.165Z,100834.39
2023-01-29T09:15:22.007Z,100841.36
2023-01-29T09:16:23.946Z,100839.02
2023-01-29T09:17:25.840Z,100839.08
2023-01-29T09:18:27.739Z,100833.30
2023-01-29T09:19:29.562Z,100834.31
2023-01-29T09:20:31.356Z,100837.89
2023-01-29T09:21:33.532Z,100831.23
2023-01-29T09:22:35.362Z,100833.11
2023-01-29T09:23:37.232Z,100837.52
2023-01-29T09:24:39.369Z,100833.32
2023-01-29T09:25:41.404Z,100834.36
2023-01-29T09:26:44.695Z,100831.00
2023-01-29T09:27:46.585Z,100838.01
2023-01-29T09:28:48.538Z,100833.91
2023-01-29T09:29:50.286Z,100835.79
2023-01-29T09:30:52.369Z,100842.03
2023-01-29T09:31:54.471Z,100829.20
2023-01-29T09:32:56.310Z,100829.78
2023-01-29T09:33:58.164Z,100832.95
2023-01-29T09:35:00.096Z,100826.14
2023-01-29T09:36:01.884Z,100824.51
2023-01-29T09:37:03.721Z,100828.16
2023-01-29T09:38:05.544Z,100830.72
2023-01-29T09:39:07.439Z,100832.42
2023-01-29T09:40:09.642Z,100833.08
2023-01-29T09:41:11.489Z,100833.91
2023-01-29T09:42:13.312Z,100838.36
2023-01-29T09:43:15.128Z,100828.02
2023-01-29T09:44:16.967Z,100830.45
2023-01-29T09:45:19.073Z,100831.86
2023-01-29T09:46:21.271Z,100829.16
2023-01-29T09:47:23.217Z,100829.88
2023-01-29T09:48:25.100Z,100841.78
2023-01-29T09:49:30.669Z,100828.80
2023-01-29T09:50:32.597Z,100831.38
2023-01-29T09:51:34.457Z,100839.73
2023-01-29T09:52:36.351Z,100837.95
2023-01-29T09:53:38.160Z,100834.52
2023-01-29T09:54:40.050Z,100828.59
2023-01-29T09:55:41.914Z,100821.77
2023-01-29T09:56:44.087Z,100828.59
2023-01-29T09:57:45.940Z,100827.69
2023-01-29T09:58:47.750Z,100820.06
2023-01-29T09:59:49.565Z,100813.41
2023-01-29T10:00:51.694Z,100820.41
2023-01-29T10:01:53.601Z,100817.98
2023-01-29T10:02:55.429Z,100818.09
2023-01-29T10:03:57.241Z,100814.90
2023-01-29T10:04:59.090Z,100817.53
2023-01-29T10:06:00.913Z,100815.88
2023-01-29T10:07:02.714Z,100810.04
2023-01-29T10:08:04.503Z,100814.38
2023-01-29T10:09:06.324Z,100799.91
2023-01-29T10:10:10.207Z,100797.20
2023-01-29T10:11:12.045Z,100804.24
2023-01-29T10:12:13.842Z,100803.52
2023-01-29T10:13:15.644Z,100801.61
2023-01-29T10:14:17.572Z,100803.17
2023-01-29T10:15:21.729Z,100804.62
2023-01-29T10:16:23.759Z,100801.12
2023-01-29T10:17:25.526Z,100815.52
2023-01-29T10:18:27.329Z,100809.20
2023-01-29T10:19:29.165Z,100814.92
2023-01-29T10:20:32.091Z,100804.45
2023-01-29T10:21:34.058Z,100814.57
2023-01-29T10:22:35.889Z,100812.84
2023-01-29T10:23:37.664Z,100807.63
2023-01-29T10:24:39.464Z,100804.96
2023-01-29T10:25:41.343Z,100804.82
2023-01-29T10:26:43.297Z,100808.14
2023-01-29T10:27:45.210Z,100807.24
2023-01-29T10:28:47.024Z,100805.65
2023-01-29T10:29:48.798Z,100809.16
2023-01-29T10:30:52.585Z,100807.53
2023-01-29T10:31:54.485Z,100804.16
2023-01-29T10:32:56.322Z,100799.03
2023-01-29T10:34:02.940Z,100799.17
2023-01-29T10:35:01.789Z,100812.98
2023-01-29T10:36:03.666Z,100800.88
2023-01-29T10:37:05.567Z,100801.53
2023-01-29T10:38:07.366Z,100802.18
2023-01-29T10:39:09.155Z,100796.83
2023-01-29T10:40:12.294Z,100798.53
2023-01-29T10:41:14.197Z,100800.38
2023-01-29T10:42:16.009Z,100808.14
2023-01-29T10:43:17.807Z,100808.22
2023-01-29T10:44:19.839Z,100799.47
2023-01-29T10:45:21.647Z,100801.97
2023-01-29T10:46:23.592Z,100799.11
2023-01-29T10:47:25.437Z,100798.90
2023-01-29T10:48:27.214Z,100791.78
2023-01-29T10:49:29.089Z,100802.73
2023-01-29T10:50:31.195Z,100800.23
2023-01-29T10:51:33.058Z,100790.12
2023-01-29T10:52:34.897Z,100803.09
2023-01-29T10:53:36.720Z,100796.33
2023-01-29T10:54:38.530Z,100798.17
2023-01-29T10:55:40.319Z,100797.23
2023-01-29T10:56:42.291Z,100794.49
2023-01-29T10:57:44.086Z,100791.78
2023-01-29T10:58:46.863Z,100789.22
2023-01-29T10:59:48.713Z,100793.63
2023-01-29T11:00:50.503Z,100793.55
2023-01-29T11:01:53.910Z,100792.61
2023-01-29T11:02:55.872Z,100786.58
2023-01-29T11:03:57.931Z,100785.64
2023-01-29T11:04:59.751Z,100799.33
2023-01-29T11:06:01.569Z,100792.68
2023-01-29T11:07:03.427Z,100795.46
2023-01-29T11:08:05.235Z,100790.27
2023-01-29T11:09:07.664Z,100784.09
2023-01-29T11:10:09.775Z,100786.65
2023-01-29T11:11:11.595Z,100790.19
2023-01-29T11:12:13.482Z,100787.91
2023-01-29T11:13:15.863Z,100788.99
2023-01-29T11:14:17.789Z,100792.75
2023-01-29T11:15:19.771Z,100788.70
2023-01-29T11:16:21.594Z,100789.66
2023-01-29T11:17:23.556Z,100787.23
2023-01-29T11:18:25.307Z,100788.17
2023-01-29T11:19:27.111Z,100796.89
2023-01-29T11:20:29.024Z,100787.52
2023-01-29T11:21:30.890Z,100788.39
2023-01-29T11:22:32.727Z,100792.86
2023-01-29T11:23:34.582Z,100789.39
2023-01-29T11:24:36.981Z,100786.03
2023-01-29T11:25:38.794Z,100792.03
2023-01-29T11:26:40.786Z,100789.33
2023-01-29T11:27:42.673Z,100794.53
2023-01-29T11:28:44.481Z,100793.66
2023-01-29T11:29:46.310Z,100803.86
2023-01-29T11:30:48.394Z,100796.95
2023-01-29T11:31:50.325Z,100791.75
2023-01-29T11:32:52.164Z,100799.45
2023-01-29T11:33:53.947Z,100793.38
2023-01-29T11:34:55.760Z,100790.81
2023-01-29T11:35:57.595Z,100787.52
2023-01-29T11:36:59.409Z,100789.33
2023-01-29T11:38:02.748Z,100787.80
2023-01-29T11:39:04.696Z,100788.67
2023-01-29T11:40:06.709Z,100798.06
2023-01-29T11:41:08.558Z,100795.43
2023-01-29T11:42:10.384Z,100797.17
2023-01-29T11:43:12.227Z,100791.75
2023-01-29T11:44:14.648Z,100787.09
2023-01-29T11:45:16.469Z,100787.09
2023-01-29T11:46:18.358Z,100786.86
2023-01-29T11:47:20.192Z,100787.61
2023-01-29T11:48:22.031Z,100787.61